Time;durP1;ratioP1;P1;durP2;ratioP2;P2;SDS_P1;SDS_P2;PMS_P1;PMS_P2;Temp;Humidity;BMP_temperature;BMP_pressure;BME280_temperature;BME280_humidity;BME280_pressure;Samples;Min_cycle;Max_cycle;Signal;HPM_P1;HPM_P2
2020/12/10 05:25:53;;;;;;;1999.90;999.90;;;1.90;99.90;;;;;;5047836;28;20632;-47
2020/12/10 05:28:21;;;;;;;1999.90;999.90;;;1.80;99.90;;;;;;5025404;28;20465;-47
2020/12/10 05:31:04;;;;;;;1999.90;999.90;;;1.80;99.90;;;;;;5028422;28;20442;-47
2020/12/10 05:33:30;;;;;;;1999.90;999.90;;;1.80;99.90;;;;;;5025195;28;20478;-47
2020/12/10 05:36:12;;;;;;;1999.90;999.90;;;1.80;99.90;;;;;;5028702;28;20436;-47
2020/12/10 05:39:04;;;;;;;1999.90;999.90;;;1.80;99.90;;;;;;5030169;28;20451;-48
2020/12/10 05:41:33;;;;;;;1999.90;999.90;;;1.90;99.90;;;;;;5028764;28;20422;-47
2020/12/10 05:44:19;;;;;;;1999.90;999.90;;;1.90;99.90;;;;;;5026944;28;20468;-50
2020/12/10 05:46:46;;;;;;;1999.90;999.90;;;1.90;99.90;;;;;;5017262;28;20427;-48
2020/12/10 05:49:13;;;;;;;1999.90;999.90;;;1.90;99.90;;;;;;5012161;28;20459;-48
2020/12/10 05:51:44;;;;;;;1999.90;999.90;;;2.00;99.90;;;;;;5026995;28;20465;-49
2020/12/10 05:54:11;;;;;;;1999.90;999.90;;;2.10;99.90;;;;;;5028086;28;20446;-47
2020/12/10 05:56:57;;;;;;;1999.90;999.90;;;2.00;99.90;;;;;;5017365;28;20433;-49
2020/12/10 05:59:30;;;;;;;1999.90;999.90;;;2.10;99.90;;;;;;5009239;28;20438;-48
2020/12/10 06:02:07;;;;;;;1999.90;999.90;;;2.00;99.90;;;;;;5011869;28;20837;-48
2020/12/10 06:04:33;;;;;;;1999.90;999.90;;;2.00;99.90;;;;;;5013417;28;20460;-48
2020/12/10 06:07:00;;;;;;;1999.90;999.90;;;2.00;99.90;;;;;;5022479;28;20433;-47
2020/12/10 06:09:27;;;;;;;1999.90;999.90;;;2.10;99.90;;;;;;5027405;28;21023;-47
2020/12/10 06:12:07;;;;;;;1999.90;999.90;;;2.20;99.90;;;;;;5027883;28;20425;-48
2020/12/10 06:15:00;;;;;;;1999.90;999.90;;;2.10;99.90;;;;;;5027254;28;20437;-47
2020/12/10 06:17:26;;;;;;;1999.90;999.90;;;2.10;99.90;;;;;;5028258;28;20802;-48
2020/12/10 06:19:52;;;;;;;1999.90;999.90;;;2.00;99.90;;;;;;5014679;28;20528;-50
2020/12/10 06:22:27;;;;;;;1999.90;999.90;;;2.10;99.90;;;;;;5009500;28;20798;-50
2020/12/10 06:24:59;;;;;;;1999.90;999.90;;;2.10;99.90;;;;;;5008673;28;20827;-48
2020/12/10 06:27:29;;;;;;;1999.90;999.90;;;2.10;99.90;;;;;;5008772;28;20425;-48
2020/12/10 06:30:20;;;;;;;1999.90;999.90;;;2.10;99.90;;;;;;5016333;28;20437;-48
2020/12/10 06:32:48;;;;;;;1999.90;999.90;;;2.00;99.90;;;;;;5025792;28;20845;-47
2020/12/10 06:35:28;;;;;;;1999.90;999.90;;;2.10;99.90;;;;;;5007624;28;20520;-47
2020/12/10 06:37:53;;;;;;;1999.90;999.90;;;2.10;99.90;;;;;;5013595;28;20438;-48
2020/12/10 06:40:31;;;;;;;1999.90;999.90;;;2.10;99.90;;;;;;5000978;28;20546;-48
2020/12/10 06:42:57;;;;;;;1999.90;999.90;;;2.10;99.90;;;;;;5006205;28;20695;-49
2020/12/10 06:45:32;;;;;;;1999.90;999.90;;;2.00;99.90;;;;;;5004666;28;20477;-47
2020/12/10 06:47:59;;;;;;;1999.90;999.90;;;2.00;99.90;;;;;;5007304;28;20203;-50
2020/12/10 06:50:33;;;;;;;1999.90;999.90;;;2.00;99.90;;;;;;5020842;28;20943;-47
2020/12/10 06:53:22;;;;;;;1999.90;999.90;;;2.00;99.90;;;;;;5006724;28;20520;-47
2020/12/10 06:56:13;;;;;;;1999.90;999.90;;;2.00;99.90;;;;;;5004983;28;20473;-48
2020/12/10 06:58:40;;;;;;;1999.90;999.90;;;2.10;99.90;;;;;;5014221;28;20466;-47
2020/12/10 07:01:18;;;;;;;1999.90;999.90;;;2.10;99.90;;;;;;5014656;28;20487;-48
2020/12/10 07:03:44;;;;;;;1999.90;999.90;;;2.10;99.90;;;;;;5014544;28;20465;-50
2020/12/10 07:06:20;;;;;;;1999.90;999.90;;;2.00;99.90;;;;;;5014838;28;20414;-48
2020/12/10 07:09:05;;;;;;;1999.90;999.90;;;2.00;99.90;;;;;;5014647;28;20409;-49
2020/12/10 07:11:35;;;;;;;1999.90;999.90;;;2.00;99.90;;;;;;4999360;28;20480;-47
2020/12/10 07:14:19;;;;;;;1999.90;999.90;;;1.90;99.90;;;;;;4995077;28;20803;-47
2020/12/10 07:16:45;;;;;;;1999.90;999.90;;;1.90;99.90;;;;;;4998844;28;20442;-48
2020/12/10 07:19:10;;;;;;;1999.90;999.90;;;1.90;99.90;;;;;;5002226;28;20441;-48
2020/12/10 07:21:37;;;;;;;1999.90;999.90;;;1.90;99.90;;;;;;5013932;28;20175;-47
2020/12/10 07:24:03;;;;;;;1999.90;999.90;;;1.90;99.90;;;;;;5013496;28;20679;-47
2020/12/10 07:26:29;;;;;;;1999.90;999.90;;;2.00;99.90;;;;;;5014323;28;20420;-49
2020/12/10 07:28:55;;;;;;;1999.90;999.90;;;2.00;99.90;;;;;;5014274;28;20418;-49
2020/12/10 07:31:20;;;;;;;1999.90;999.90;;;2.00;99.90;;;;;;5014679;28;20512;-47
2020/12/10 07:33:46;;;;;;;1999.90;999.90;;;2.00;99.90;;;;;;5014192;28;20210;-47
2020/12/10 07:36:12;;;;;;;1999.90;999.90;;;2.00;99.90;;;;;;5008750;28;20225;-47
2020/12/10 07:38:43;;;;;;;1999.90;999.90;;;2.00;99.90;;;;;;5014174;28;20601;-48
2020/12/10 07:41:09;;;;;;;1999.90;999.90;;;2.00;99.90;;;;;;5011982;28;20232;-49
2020/12/10 07:43:47;;;;;;;1999.90;999.90;;;2.00;99.90;;;;;;5013751;28;20442;-47
2020/12/10 07:46:12;;;;;;;1999.90;999.90;;;2.00;99.90;;;;;;5011056;28;20650;-47
2020/12/10 07:48:39;;;;;;;1999.90;999.90;;;2.00;99.90;;;;;;5013127;28;20429;-47
2020/12/10 07:51:05;;;;;;;1999.90;999.90;;;2.10;99.90;;;;;;5009566;28;21048;-47
2020/12/10 13:46:21;;;;;;;1999.90;999.90;;;2.80;99.90;;;;;;5055104;28;20621;-51
2020/12/10 13:48:47;;;;;;;1999.90;999.90;;;2.70;99.90;;;;;;5030334;28;20436;-51
2020/12/10 13:51:17;;;;;;;1999.90;999.90;;;2.70;99.90;;;;;;5029560;28;20271;-52
2020/12/10 13:53:43;;;;;;;1999.90;999.90;;;2.60;99.90;;;;;;5032479;28;20192;-51
2020/12/10 13:56:10;;;;;;;1999.90;999.90;;;2.60;99.90;;;;;;5029989;28;21239;-52
2020/12/10 13:58:38;;;;;;;1999.90;999.90;;;2.60;99.90;;;;;;5036496;28;20429;-53
2020/12/10 14:01:05;;;;;;;1999.90;999.90;;;2.60;99.90;;;;;;5033929;28;20511;-53
2020/12/10 14:03:31;;;;;;;1999.90;999.90;;;2.70;99.90;;;;;;5036084;28;20416;-52
2020/12/10 14:06:00;;;;;;;1999.90;999.90;;;2.70;99.90;;;;;;5034790;28;20467;-51
2020/12/10 14:08:26;;;;;;;1999.90;999.90;;;2.70;99.90;;;;;;5035943;28;20656;-51
2020/12/10 14:10:52;;;;;;;1999.90;999.90;;;2.70;99.90;;;;;;5034711;28;20462;-51
2020/12/10 14:13:17;;;;;;;1999.90;999.90;;;2.70;99.90;;;;;;5033343;28;20433;-52
2020/12/10 14:15:44;;;;;;;1999.90;999.90;;;2.70;99.90;;;;;;5037130;28;20212;-53
2020/12/10 14:18:09;;;;;;;1999.90;999.90;;;2.70;99.90;;;;;;5037843;28;21073;-50
2020/12/10 14:20:35;;;;;;;1999.90;999.90;;;2.70;99.90;;;;;;5034438;28;20436;-50
2020/12/10 14:23:01;;;;;;;1999.90;999.90;;;2.70;99.90;;;;;;5040364;28;20196;-51
2020/12/10 14:25:26;;;;;;;1999.90;999.90;;;2.70;99.90;;;;;;5037640;28;20640;-50
2020/12/10 14:27:52;;;;;;;1999.90;999.90;;;2.60;99.90;;;;;;5038685;28;20254;-51
2020/12/10 14:30:17;;;;;;;1999.90;999.90;;;2.70;99.90;;;;;;5044814;28;20178;-49
2020/12/10 14:32:43;;;;;;;1999.90;999.90;;;2.70;99.90;;;;;;5044551;28;20175;-50
2020/12/10 14:35:09;;;;;;;1999.90;999.90;;;2.70;99.90;;;;;;5045003;28;20224;-51
2020/12/10 14:37:34;;;;;;;1999.90;999.90;;;2.70;99.90;;;;;;5044453;28;20181;-50
2020/12/10 14:40:00;;;;;;;1999.90;999.90;;;2.60;99.90;;;;;;5044796;28;20191;-50
2020/12/10 14:42:26;;;;;;;1999.90;999.90;;;2.60;99.90;;;;;;5040574;28;20189;-49
2020/12/10 14:44:51;;;;;;;1999.90;999.90;;;2.60;99.90;;;;;;5028711;28;20217;-51
2020/12/10 14:47:17;;;;;;;1999.90;999.90;;;2.50;99.90;;;;;;5027826;28;20666;-53
2020/12/10 14:49:43;;;;;;;1999.90;999.90;;;2.50;99.90;;;;;;5045103;28;20181;-51
2020/12/10 14:52:09;;;;;;;1999.90;999.90;;;2.50;99.90;;;;;;5044464;28;20170;-51
2020/12/10 14:54:34;;;;;;;1999.90;999.90;;;2.50;99.90;;;;;;5044524;28;20803;-51
2020/12/10 14:57:01;;;;;;;1999.90;999.90;;;2.50;99.90;;;;;;5029319;28;20194;-51
2020/12/10 14:59:26;;;;;;;1999.90;999.90;;;2.40;99.90;;;;;;5018057;28;20275;-51
2020/12/10 15:01:52;;;;;;;1999.90;999.90;;;2.50;99.90;;;;;;5023253;28;20523;-51
2020/12/10 15:04:18;;;;;;;1999.90;999.90;;;2.50;99.90;;;;;;5026547;28;20498;-53
2020/12/10 15:06:49;;;;;;;1999.90;999.90;;;2.60;99.90;;;;;;5022733;28;20198;-51
2020/12/10 15:09:15;;;;;;;1999.90;999.90;;;2.50;99.90;;;;;;5022858;28;20281;-51
2020/12/10 15:11:41;;;;;;;1999.90;999.90;;;2.50;99.90;;;;;;5020035;28;20512;-51
2020/12/10 15:14:08;;;;;;;1999.90;999.90;;;2.50;99.90;;;;;;5019102;28;20460;-51
2020/12/10 15:16:34;;;;;;;1999.90;999.90;;;2.50;99.90;;;;;;5025600;28;21127;-52
2020/12/10 15:19:00;;;;;;;1999.90;999.90;;;2.50;99.90;;;;;;5030567;28;20559;-52
2020/12/10 15:21:26;;;;;;;1999.90;999.90;;;2.50;99.90;;;;;;5031172;28;20963;-51
2020/12/10 15:23:51;;;;;;;1999.90;999.90;;;2.50;99.90;;;;;;5029948;28;20228;-51
2020/12/10 15:26:17;;;;;;;1999.90;999.90;;;2.50;99.90;;;;;;5030988;28;20604;-51
2020/12/10 15:28:43;;;;;;;1999.90;999.90;;;2.50;99.90;;;;;;5028705;28;20215;-52
2020/12/10 15:31:10;;;;;;;1999.90;999.90;;;2.40;99.90;;;;;;5030690;28;20474;-52
2020/12/10 15:33:35;;;;;;;1999.90;999.90;;;2.40;99.90;;;;;;5018066;28;20536;-51
2020/12/10 15:36:04;;;;;;;1999.90;999.90;;;2.40;99.90;;;;;;5011284;28;20597;-52
2020/12/10 15:38:29;;;;;;;1999.90;999.90;;;2.40;99.90;;;;;;5011195;28;20189;-52
2020/12/10 15:41:01;;;;;;;1999.90;999.90;;;2.40;99.90;;;;;;5010722;28;21145;-52
2020/12/10 15:43:27;;;;;;;1999.90;999.90;;;2.40;99.90;;;;;;5010989;28;20702;-51
2020/12/10 15:45:55;;;;;;;1999.90;999.90;;;2.40;99.90;;;;;;5010575;28;20472;-51
2020/12/10 15:48:21;;;;;;;1999.90;999.90;;;2.30;99.90;;;;;;5021833;28;20431;-51
2020/12/10 15:50:46;;;;;;;1999.90;999.90;;;2.30;99.90;;;;;;5012389;28;20449;-51
2020/12/10 15:53:12;;;;;;;1999.90;999.90;;;2.30;99.90;;;;;;5010779;28;20185;-52
2020/12/10 15:55:38;;;;;;;1999.90;999.90;;;2.40;99.90;;;;;;5013109;28;20221;-51
2020/12/10 15:58:04;;;;;;;1999.90;999.90;;;2.30;99.90;;;;;;5016525;28;20275;-52
2020/12/10 16:00:29;;;;;;;1999.90;999.90;;;2.40;99.90;;;;;;5013457;28;20466;-51
2020/12/10 16:02:55;;;;;;;1999.90;999.90;;;2.30;99.90;;;;;;5013515;28;20190;-51
2020/12/10 16:05:21;;;;;;;1999.90;999.90;;;2.30;99.90;;;;;;5030210;28;20209;-51
2020/12/10 16:07:47;;;;;;;1999.90;999.90;;;2.30;99.90;;;;;;5022716;28;20182;-51
2020/12/10 16:10:12;;;;;;;1999.90;999.90;;;2.20;99.90;;;;;;5022460;28;20448;-52
2020/12/10 16:12:38;;;;;;;1999.90;999.90;;;2.20;99.90;;;;;;5023615;28;20240;-54
2020/12/10 16:15:05;;;;;;;1999.90;999.90;;;2.30;99.90;;;;;;5023010;28;20556;-53
2020/12/10 16:17:31;;;;;;;1999.90;999.90;;;2.30;99.90;;;;;;5027901;28;20191;-51
2020/12/10 16:19:57;;;;;;;1999.90;999.90;;;2.20;99.90;;;;;;5023265;28;20433;-53
2020/12/10 16:22:23;;;;;;;1999.90;999.90;;;2.30;99.90;;;;;;5017794;28;20440;-52
2020/12/10 16:24:48;;;;;;;1999.90;999.90;;;2.30;99.90;;;;;;5026012;28;20221;-51
2020/12/10 16:27:15;;;;;;;1999.90;999.90;;;2.20;99.90;;;;;;5034395;28;21000;-51
2020/12/10 16:29:44;;;;;;;1999.90;999.90;;;2.30;99.90;;;;;;5033067;28;20187;-52
2020/12/10 16:32:10;;;;;;;1999.90;999.90;;;2.30;99.90;;;;;;5022577;28;20521;-52
2020/12/10 16:34:38;;;;;;;1999.90;999.90;;;2.30;99.90;;;;;;5025347;28;20555;-52
2020/12/10 16:37:03;;;;;;;1999.90;999.90;;;2.30;99.90;;;;;;5026857;28;20605;-52
2020/12/10 16:39:29;;;;;;;1999.90;999.90;;;2.30;99.90;;;;;;5015343;28;20555;-51
2020/12/10 16:41:57;;;;;;;1999.90;999.90;;;2.40;99.90;;;;;;5014026;28;20246;-51
2020/12/10 16:44:22;;;;;;;1999.90;999.90;;;2.40;99.90;;;;;;5010222;28;20461;-51
2020/12/10 16:46:50;;;;;;;1999.90;999.90;;;2.30;99.90;;;;;;5015257;28;20557;-51
2020/12/10 16:49:17;;;;;;;1999.90;999.90;;;2.30;99.90;;;;;;5028752;28;20190;-51
2020/12/10 16:51:43;;;;;;;1999.90;999.90;;;2.30;99.90;;;;;;5015218;28;20446;-53
2020/12/10 16:54:10;;;;;;;1999.90;999.90;;;2.30;99.90;;;;;;5011839;28;20448;-52
2020/12/10 16:56:35;;;;;;;1999.90;999.90;;;2.30;99.90;;;;;;5025391;28;20961;-51
2020/12/10 16:59:02;;;;;;;1999.90;999.90;;;2.40;99.90;;;;;;5018077;28;20449;-51
2020/12/10 17:01:28;;;;;;;1999.90;999.90;;;2.30;99.90;;;;;;5019474;28;20275;-53
2020/12/10 17:03:54;;;;;;;1999.90;999.90;;;2.30;99.90;;;;;;5012023;28;20528;-53
2020/12/10 17:06:20;;;;;;;1999.90;999.90;;;2.20;99.90;;;;;;5014978;28;20218;-52
2020/12/10 17:08:46;;;;;;;1999.90;999.90;;;2.30;99.90;;;;;;5020227;28;20980;-52
2020/12/10 17:11:20;;;;;;;1999.90;999.90;;;2.30;99.90;;;;;;5010394;28;21021;-51
2020/12/10 17:13:46;;;;;;;1999.90;999.90;;;2.30;99.90;;;;;;5011962;28;20441;-52
2020/12/10 17:16:11;;;;;;;1999.90;999.90;;;2.30;99.90;;;;;;5011288;28;20469;-53
2020/12/10 17:18:37;;;;;;;1999.90;999.90;;;2.30;99.90;;;;;;5008935;28;20558;-52
2020/12/10 17:21:02;;;;;;;1999.90;999.90;;;2.30;99.90;;;;;;5009941;28;20697;-52
2020/12/10 17:23:28;;;;;;;1999.90;999.90;;;2.30;99.90;;;;;;5013985;28;20244;-52
2020/12/10 17:25:54;;;;;;;1999.90;999.90;;;2.40;99.90;;;;;;5011474;28;20226;-52
2020/12/10 17:28:19;;;;;;;1999.90;999.90;;;2.40;99.90;;;;;;5007281;28;20194;-52
2020/12/10 17:30:45;;;;;;;1999.90;999.90;;;2.40;99.90;;;;;;5014804;28;20607;-51
2020/12/10 17:33:11;;;;;;;1999.90;999.90;;;2.40;99.90;;;;;;5013237;28;20277;-51
2020/12/10 17:35:38;;;;;;;1999.90;999.90;;;2.40;99.90;;;;;;5010441;28;20966;-51
2020/12/10 17:38:03;;;;;;;1999.90;999.90;;;2.30;99.90;;;;;;5011094;28;20197;-52
2020/12/10 17:40:29;;;;;;;1999.90;999.90;;;2.40;99.90;;;;;;5013639;28;20444;-51
2020/12/10 17:42:55;;;;;;;1999.90;999.90;;;2.40;99.90;;;;;;5011602;28;20194;-51
2020/12/10 17:45:20;;;;;;;1999.90;999.90;;;2.40;99.90;;;;;;5008181;28;20509;-52
2020/12/10 17:47:46;;;;;;;1999.90;999.90;;;2.30;99.90;;;;;;5020630;28;20190;-52
2020/12/10 17:50:13;;;;;;;1999.90;999.90;;;2.30;99.90;;;;;;5015219;28;20249;-52
2020/12/10 17:52:40;;;;;;;1999.90;999.90;;;2.30;99.90;;;;;;5015271;28;20585;-51
2020/12/10 17:55:06;;;;;;;1999.90;999.90;;;2.40;99.90;;;;;;5008658;28;20825;-51
2020/12/10 17:57:32;;;;;;;1999.90;999.90;;;2.30;99.90;;;;;;5024658;28;20794;-52
2020/12/10 17:59:58;;;;;;;1999.90;999.90;;;2.30;99.90;;;;;;5018002;28;20445;-51
2020/12/10 18:02:23;;;;;;;1999.90;999.90;;;2.30;99.90;;;;;;5010463;28;20450;-51
2020/12/10 18:04:50;;;;;;;1999.90;999.90;;;2.40;99.90;;;;;;5010860;28;20219;-52
2020/12/10 18:07:16;;;;;;;1999.90;999.90;;;2.30;99.90;;;;;;5019370;28;20190;-51
2020/12/10 18:09:42;;;;;;;1999.90;999.90;;;2.30;99.90;;;;;;5027457;28;20509;-52
2020/12/10 18:12:07;;;;;;;1999.90;999.90;;;2.20;99.90;;;;;;5017714;28;20721;-54
2020/12/10 18:14:35;;;;;;;1999.90;999.90;;;2.30;99.90;;;;;;5015004;28;20193;-51
2020/12/10 18:17:01;;;;;;;1999.90;999.90;;;2.30;99.90;;;;;;5024398;28;20191;-51
2020/12/10 18:19:26;;;;;;;1999.90;999.90;;;2.40;99.90;;;;;;5026685;28;20829;-53
2020/12/10 18:21:52;;;;;;;1999.90;999.90;;;2.40;99.90;;;;;;5023752;28;20691;-51
2020/12/10 18:24:18;;;;;;;1999.90;999.90;;;2.40;99.90;;;;;;5023160;28;20194;-53
2020/12/10 18:26:44;;;;;;;1999.90;999.90;;;2.30;99.90;;;;;;5022489;28;20195;-51
2020/12/10 18:29:09;;;;;;;1999.90;999.90;;;2.30;99.90;;;;;;5027674;28;20445;-52
2020/12/10 18:31:35;;;;;;;1999.90;999.90;;;2.30;99.90;;;;;;5014488;28;20198;-52
2020/12/10 18:34:01;;;;;;;1999.90;999.90;;;2.30;99.90;;;;;;5013250;28;20270;-54
2020/12/10 18:36:26;;;;;;;1999.90;999.90;;;2.30;99.90;;;;;;5028123;28;20741;-53
2020/12/10 18:38:52;;;;;;;1999.90;999.90;;;2.30;99.90;;;;;;5020557;28;20305;-52
2020/12/10 18:41:18;;;;;;;1999.90;999.90;;;2.30;99.90;;;;;;5013029;28;20190;-52
2020/12/10 18:43:45;;;;;;;1999.90;999.90;;;2.30;99.90;;;;;;5012983;28;20209;-52
2020/12/10 18:46:15;;;;;;;1999.90;999.90;;;2.30;99.90;;;;;;5029735;28;20484;-52
2020/12/10 18:48:41;;;;;;;1999.90;999.90;;;2.30;99.90;;;;;;5029151;28;20444;-53
2020/12/10 18:51:10;;;;;;;1999.90;999.90;;;2.40;99.90;;;;;;5029107;28;20499;-53
2020/12/10 18:53:36;;;;;;;1999.90;999.90;;;2.30;99.90;;;;;;5029973;28;20416;-53
2020/12/10 18:56:02;;;;;;;1999.90;999.90;;;2.30;99.90;;;;;;5019299;28;20853;-53
2020/12/10 18:58:27;;;;;;;1999.90;999.90;;;2.30;99.90;;;;;;5029866;28;20873;-53
2020/12/10 19:00:53;;;;;;;1999.90;999.90;;;2.30;99.90;;;;;;5017243;28;20469;-52
2020/12/10 19:03:19;;;;;;;1999.90;999.90;;;2.30;99.90;;;;;;5014679;28;20576;-52
2020/12/10 19:05:44;;;;;;;1999.90;999.90;;;2.30;99.90;;;;;;5023409;28;20222;-51
2020/12/10 19:08:10;;;;;;;1999.90;999.90;;;2.20;99.90;;;;;;5026325;28;20631;-52
2020/12/10 19:10:36;;;;;;;1999.90;999.90;;;2.20;99.90;;;;;;5020408;28;20190;-52
2020/12/10 19:13:02;;;;;;;1999.90;999.90;;;2.20;99.90;;;;;;5019989;28;20187;-51
2020/12/10 19:15:28;;;;;;;1999.90;999.90;;;2.20;99.90;;;;;;5025803;28;20856;-52
2020/12/10 19:17:54;;;;;;;1999.90;999.90;;;2.20;99.90;;;;;;5029293;28;20448;-51
2020/12/10 19:20:19;;;;;;;1999.90;999.90;;;2.20;99.90;;;;;;5020842;28;20434;-52
2020/12/10 19:22:45;;;;;;;1999.90;999.90;;;2.20;99.90;;;;;;5020290;28;20248;-50
2020/12/10 19:25:11;;;;;;;1999.90;999.90;;;2.20;99.90;;;;;;5021152;28;20724;-53
2020/12/10 19:27:43;;;;;;;1999.90;999.90;;;2.10;99.90;;;;;;5017728;28;20187;-53
2020/12/10 19:30:10;;;;;;;1999.90;999.90;;;2.10;99.90;;;;;;5023712;28;20487;-52
2020/12/10 19:32:36;;;;;;;1999.90;999.90;;;2.10;99.90;;;;;;5020758;28;21040;-52
2020/12/10 19:35:03;;;;;;;1999.90;999.90;;;2.10;99.90;;;;;;5027318;28;20584;-52
2020/12/10 19:37:28;;;;;;;1999.90;999.90;;;2.10;99.90;;;;;;5025820;28;20441;-52
2020/12/10 19:39:54;;;;;;;1999.90;999.90;;;2.20;99.90;;;;;;5028442;28;20439;-51
2020/12/10 19:42:21;;;;;;;1999.90;999.90;;;2.30;99.90;;;;;;5020896;28;20200;-52
2020/12/10 19:44:46;;;;;;;1999.90;999.90;;;2.30;99.90;;;;;;5028850;28;20214;-51
2020/12/10 19:47:12;;;;;;;1999.90;999.90;;;2.30;99.90;;;;;;5017847;28;20495;-51
2020/12/10 19:49:38;;;;;;;1999.90;999.90;;;2.20;99.90;;;;;;5013583;28;20485;-53
2020/12/10 19:52:06;;;;;;;1999.90;999.90;;;2.20;99.90;;;;;;5015181;28;20679;-55
2020/12/10 19:54:32;;;;;;;1999.90;999.90;;;2.20;99.90;;;;;;5022740;28;20186;-51
2020/12/10 19:56:58;;;;;;;1999.90;999.90;;;2.20;99.90;;;;;;5029162;28;20909;-54
2020/12/10 19:59:23;;;;;;;1999.90;999.90;;;2.30;99.90;;;;;;5020250;28;20196;-52
2020/12/10 20:01:49;;;;;;;1999.90;999.90;;;2.30;99.90;;;;;;5009546;28;20198;-52
2020/12/10 20:04:16;;;;;;;1999.90;999.90;;;2.30;99.90;;;;;;5026025;28;20191;-51
2020/12/10 20:06:46;;;;;;;1999.90;999.90;;;2.30;99.90;;;;;;5028249;28;20414;-53
2020/12/10 20:09:11;;;;;;;1999.90;999.90;;;2.30;99.90;;;;;;5028155;28;20513;-53
2020/12/10 20:11:37;;;;;;;1999.90;999.90;;;2.30;99.90;;;;;;5028915;28;21050;-55
2020/12/10 20:14:02;;;;;;;1999.90;999.90;;;2.30;99.90;;;;;;5047741;28;20190;-54
2020/12/10 20:16:28;;;;;;;1999.90;999.90;;;2.30;99.90;;;;;;5022779;28;20219;-52
2020/12/10 20:18:54;;;;;;;1999.90;999.90;;;2.30;99.90;;;;;;5022978;28;20231;-52
2020/12/10 20:21:22;;;;;;;1999.90;999.90;;;2.30;99.90;;;;;;5013818;28;20197;-51
2020/12/10 20:24:01;;;;;;;1999.90;999.90;;;2.40;99.90;;;;;;5022323;28;20903;-52
2020/12/10 20:26:43;;;;;;;1999.90;999.90;;;2.40;99.90;;;;;;5019981;28;20480;-53
2020/12/10 20:29:19;;;;;;;1999.90;999.90;;;2.50;99.90;;;;;;5010154;28;20452;-52
2020/12/10 20:31:45;;;;;;;1999.90;999.90;;;2.50;99.90;;;;;;5015784;28;20452;-52
2020/12/10 20:34:12;;;;;;;1999.90;999.90;;;2.50;99.90;;;;;;5027294;28;20511;-53
2020/12/10 20:36:39;;;;;;;1999.90;999.90;;;2.50;99.90;;;;;;5016161;28;20206;-52
2020/12/10 20:39:07;;;;;;;1999.90;999.90;;;2.50;99.90;;;;;;5018570;28;21018;-52
2020/12/10 20:41:34;;;;;;;1999.90;999.90;;;2.50;99.90;;;;;;5011011;28;20500;-52
2020/12/10 20:44:10;;;;;;;1999.90;999.90;;;2.50;99.90;;;;;;5017168;28;20441;-53
2020/12/10 20:46:38;;;;;;;1999.90;999.90;;;2.50;99.90;;;;;;5030612;23;20475;-50
2020/12/10 20:49:08;;;;;;;1999.90;999.90;;;2.50;99.90;;;;;;5002493;28;20442;-50
2020/12/10 20:51:35;;;;;;;1999.90;999.90;;;2.50;99.90;;;;;;5006960;28;20445;-50
2020/12/10 20:54:01;;;;;;;1999.90;999.90;;;2.40;99.90;;;;;;5006745;28;20444;-50
2020/12/10 20:56:27;;;;;;;1999.90;999.90;;;2.40;99.90;;;;;;5005874;28;20931;-50
2020/12/10 20:58:52;;;;;;;1999.90;999.90;;;2.40;99.90;;;;;;4979180;28;20443;-49
2020/12/10 21:01:18;;;;;;;1999.90;999.90;;;2.40;99.90;;;;;;4985903;28;20191;-49
2020/12/10 21:03:44;;;;;;;1999.90;999.90;;;2.40;99.90;;;;;;4985512;28;20187;-49
2020/12/10 21:06:10;;;;;;;1999.90;999.90;;;2.40;99.90;;;;;;4986979;28;20277;-49
2020/12/10 21:08:37;;;;;;;1999.90;999.90;;;2.50;99.90;;;;;;4987727;28;20496;-49
2020/12/10 21:11:03;;;;;;;1999.90;999.90;;;2.50;99.90;;;;;;4990239;28;20194;-50
2020/12/10 21:13:29;;;;;;;1999.90;999.90;;;2.40;99.90;;;;;;4991219;28;20508;-51
2020/12/10 21:15:54;;;;;;;1999.90;999.90;;;2.40;99.90;;;;;;4986543;28;20238;-49
2020/12/10 21:18:20;;;;;;;1999.90;999.90;;;2.40;99.90;;;;;;4985027;28;20212;-49
2020/12/10 21:20:45;;;;;;;1999.90;999.90;;;2.30;99.90;;;;;;4987032;28;20196;-49
2020/12/10 21:23:11;;;;;;;1999.90;999.90;;;2.30;99.90;;;;;;4987364;28;20289;-49
2020/12/10 21:25:37;;;;;;;1999.90;999.90;;;2.30;99.90;;;;;;4985836;28;20239;-49
2020/12/10 21:28:04;;;;;;;1999.90;999.90;;;2.30;99.90;;;;;;4979612;28;20218;-49
2020/12/10 21:30:30;;;;;;;1999.90;999.90;;;2.30;99.90;;;;;;4981871;28;20448;-49
2020/12/10 21:32:55;;;;;;;1999.90;999.90;;;2.40;99.90;;;;;;4978515;28;20445;-49
2020/12/10 21:35:21;;;;;;;1999.90;999.90;;;2.40;99.90;;;;;;4986806;28;20458;-49
2020/12/10 21:37:46;;;;;;;1999.90;999.90;;;2.40;99.90;;;;;;4988235;28;20679;-49
2020/12/10 21:40:12;;;;;;;1999.90;999.90;;;2.30;99.90;;;;;;4976309;28;20191;-49
2020/12/10 21:42:38;;;;;;;1999.90;999.90;;;2.20;99.90;;;;;;4984005;28;20194;-49
2020/12/10 21:45:04;;;;;;;1999.90;999.90;;;2.00;99.90;;;;;;4986343;28;20714;-49
2020/12/10 21:47:30;;;;;;;1999.90;999.90;;;2.00;99.90;;;;;;4987038;28;20690;-49
2020/12/10 21:49:55;;;;;;;1999.90;999.90;;;2.00;99.90;;;;;;4985887;28;20501;-49
2020/12/10 21:52:21;;;;;;;1999.90;999.90;;;2.00;99.90;;;;;;4987776;28;20182;-49
2020/12/10 21:54:47;;;;;;;1999.90;999.90;;;2.00;99.90;;;;;;4979576;28;20200;-49
2020/12/10 21:57:12;;;;;;;1999.90;999.90;;;2.00;99.90;;;;;;4977302;28;20593;-49
2020/12/10 21:59:38;;;;;;;1999.90;999.90;;;2.00;99.90;;;;;;4978822;28;20238;-50
2020/12/10 22:02:03;;;;;;;1999.90;999.90;;;2.00;99.90;;;;;;4970041;28;20202;-50
2020/12/10 22:04:29;;;;;;;1999.90;999.90;;;2.00;99.90;;;;;;4978271;28;20203;-49
2020/12/10 22:06:59;;;;;;;1999.90;999.90;;;2.10;99.90;;;;;;4981765;28;20207;-50
2020/12/10 22:09:28;;;;;;;1999.90;999.90;;;2.10;99.90;;;;;;4993717;28;20187;-49
2020/12/10 22:12:00;;;;;;;1999.90;999.90;;;2.10;99.90;;;;;;4993690;28;20442;-49
2020/12/10 22:14:25;;;;;;;1999.90;999.90;;;2.20;99.90;;;;;;4993203;28;20470;-49
2020/12/10 22:16:51;;;;;;;1999.90;999.90;;;2.30;99.90;;;;;;4990771;28;20462;-49
2020/12/10 22:19:17;;;;;;;1999.90;999.90;;;2.20;99.90;;;;;;4994875;28;20172;-49
2020/12/10 22:21:42;;;;;;;1999.90;999.90;;;2.30;99.90;;;;;;4994539;28;20212;-49
2020/12/10 22:24:08;;;;;;;1999.90;999.90;;;2.30;99.90;;;;;;4994674;28;20975;-49
2020/12/10 22:26:34;;;;;;;1999.90;999.90;;;2.40;99.90;;;;;;4994812;28;20214;-49
2020/12/10 22:29:00;;;;;;;1999.90;999.90;;;2.30;99.90;;;;;;4994495;28;20488;-49
2020/12/10 22:31:26;;;;;;;1999.90;999.90;;;2.30;99.90;;;;;;4994082;28;20176;-49
2020/12/10 22:33:51;;;;;;;1999.90;999.90;;;2.20;99.90;;;;;;4994399;28;20191;-49
2020/12/10 22:36:18;;;;;;;1999.90;999.90;;;2.20;99.90;;;;;;4993204;28;20430;-50
2020/12/10 22:38:45;;;;;;;1999.90;999.90;;;2.20;99.90;;;;;;4994148;28;20259;-49
2020/12/10 22:41:21;;;;;;;1999.90;999.90;;;2.30;99.90;;;;;;4994160;28;20419;-49
2020/12/10 22:43:48;;;;;;;1999.90;999.90;;;2.30;99.90;;;;;;4994414;28;20467;-49
2020/12/10 22:46:19;;;;;;;1999.90;999.90;;;2.30;99.90;;;;;;4994413;28;20456;-49
2020/12/10 22:48:47;;;;;;;1999.90;999.90;;;2.30;99.90;;;;;;4994328;28;20430;-49
2020/12/10 22:51:13;;;;;;;1999.90;999.90;;;2.30;99.90;;;;;;4993660;28;20440;-49
2020/12/10 22:53:39;;;;;;;1999.90;999.90;;;2.20;99.90;;;;;;4994345;28;20415;-49
2020/12/10 22:56:06;;;;;;;1999.90;999.90;;;2.20;99.90;;;;;;4992389;28;20444;-50
2020/12/10 22:58:31;;;;;;;1999.90;999.90;;;2.20;99.90;;;;;;4993954;28;20482;-49
2020/12/10 23:00:57;;;;;;;1999.90;999.90;;;2.30;99.90;;;;;;5008637;28;20873;-49
2020/12/10 23:03:22;;;;;;;1999.90;999.90;;;2.30;99.90;;;;;;4992022;28;20235;-49
2020/12/10 23:05:48;;;;;;;1999.90;999.90;;;2.20;99.90;;;;;;4992197;28;20242;-49
2020/12/10 23:08:14;;;;;;;1999.90;999.90;;;2.30;99.90;;;;;;4993647;28;20289;-49
2020/12/10 23:10:39;;;;;;;1999.90;999.90;;;2.30;99.90;;;;;;4992490;28;20175;-49
2020/12/10 23:13:05;;;;;;;1999.90;999.90;;;2.40;99.90;;;;;;4993299;28;20644;-49
2020/12/10 23:15:30;;;;;;;1999.90;999.90;;;2.40;99.90;;;;;;4989639;28;20595;-49
